Salem, OR (97301)

4:11 AM PST on February 21, 2017 (GMT -0800)
Center & Cordon NE | | Change Station

Elev 210 ft 44.94 °N, 122.96 °W | Updated 0 second ago

Light Rain
Light Rain Mist
44.1 °F
Feels Like 44 °F
N
1.8
Wind Variable Wind from NNW
Gusts 3.5 mph

Today
High -- | Low -- °F
--% Chance of Precip.
Yesterday
High -- | Low -- °F
Precip. -- in
Pressure 29.66 in
Visibility 6.0 miles
Clouds Overcast 500 ft
Windchill 44 °F
Dew Point 43 °F
Humidity 95%
Rainfall 0.27 in
Snow Depth Not available.
7:02 AM 5:49 PM
Waning Crescent, 26% visible
METAR KSLE 211156Z AUTO 35005KT 6SM -RA BR OVC005 07/06 A2966 RMK AO2 SLP044 P0008 60036 70108 T00720061 10083 20072 53004
Pressure 29.66 in
Visibility 6.0 miles
Clouds Overcast 500 ft
Windchill 44 °F
Dew Point 43 °F
Humidity 95%
Rainfall 0.27 in
Snow Depth Not available.
7:02 AM 5:49 PM
Waning Crescent, 26% visible
METAR KSLE 211156Z AUTO 35005KT 6SM -RA BR OVC005 07/06 A2966 RMK AO2 SLP044 P0008 60036 70108 T00720061 10083 20072 53004

Get Your Daily Forecast Email!

Thanks for signing up!

Be on the lookout for a verification email in your inbox.

You'll start receiving the daily forecast at 8 AM.

×

10-Day Weather Forecast

Almanac

Astronomy

Feb. 21, 2017 Rise Set
Actual Time
Civil Twilight
Nautical Twilight
Astronomical Twilight
Moon
Length of Visible Light
Length of Day
Tomorrow will be .
, % of the Moon is Illuminated

Today's Extremes

State Highs State Lows

Community

WunderPhotos

Upload Photos

1,962,540 photos uploaded!

WunderBlog® & News

Nearby

Air Quality

  Air Quality AQ Index Pollutant
Not available.

Snow Depth

Station Depth Elevation

Earthquake Activity

City Distance Mag. Time & Date
Minimum magnitude displayed is 2.5.

Coastal Water Temperatures

Place Temperature

Stations

Nearby Weather Stations

Station Location Temp. Windchill Dew Point Humidity Wind Precip. Elev Updated Type
                   

Watches & Warnings

Small Craft for Winds Advisory
Issued: 2:08 AM PST Feb. 21, 2017 – National Weather Service

... Small Craft Advisory for winds remains in effect until 4 PM
PST this afternoon...

* winds... Tuesday north 20 to 25 kt with gusts to 30 kt.

Precautionary/preparedness actions...

A Small Craft Advisory for wind means that wind speeds of 21 to
33 knots are expected. Inexperienced mariners... especially those
operating smaller vessels should avoid navigating in these
conditions.




Http://www.Weather.Gov/Portland